createdAt,value
2023-11-14T00:03:38.521Z,3.27
2023-11-14T00:08:38.425Z,3.32
2023-11-14T00:13:38.158Z,3.36
2023-11-14T00:18:38.558Z,3.35
2023-11-14T00:23:38.110Z,3.45
2023-11-14T00:28:38.161Z,3.34
2023-11-14T00:33:38.451Z,3.29
2023-11-14T00:38:38.217Z,3.20
2023-11-14T00:43:38.071Z,3.20
2023-11-14T00:48:38.538Z,3.37
2023-11-14T00:53:38.114Z,3.44
2023-11-14T00:58:38.417Z,3.47
2023-11-14T01:03:38.416Z,3.44
2023-11-14T01:08:38.035Z,3.42
2023-11-14T01:13:39.818Z,3.13
2023-11-14T01:18:38.613Z,2.77
2023-11-14T01:23:38.914Z,2.63
2023-11-14T01:28:38.513Z,2.69
2023-11-14T01:33:39.848Z,2.79
2023-11-14T01:38:38.111Z,2.86
2023-11-14T01:43:42.679Z,2.90
2023-11-14T01:48:38.636Z,2.99
2023-11-14T01:53:39.407Z,3.06
2023-11-14T01:58:38.269Z,3.17
2023-11-14T02:03:39.453Z,3.23
2023-11-14T02:08:38.182Z,3.25
2023-11-14T02:13:43.026Z,3.30
2023-11-14T02:18:38.106Z,3.32
2023-11-14T02:23:40.874Z,3.35
2023-11-14T02:28:38.043Z,3.36
2023-11-14T02:33:38.335Z,3.43
2023-11-14T02:38:37.985Z,3.52
2023-11-14T02:43:38.011Z,3.45
2023-11-14T02:48:38.492Z,3.44
2023-11-14T02:53:37.934Z,3.38
2023-11-14T02:58:38.846Z,3.47
2023-11-14T03:03:43.492Z,3.53
2023-11-14T03:08:38.021Z,3.55
2023-11-14T03:13:37.975Z,3.54
2023-11-14T03:18:38.407Z,3.54
2023-11-14T03:23:38.030Z,3.59
2023-11-14T03:28:37.966Z,3.63
2023-11-14T03:33:38.153Z,3.69
2023-11-14T03:38:37.895Z,3.80
2023-11-14T03:43:37.971Z,3.92
2023-11-14T03:48:38.108Z,4.02
2023-11-14T03:53:38.544Z,4.09
2023-11-14T03:58:39.304Z,4.20
2023-11-14T04:03:38.303Z,4.32
2023-11-14T04:08:38.691Z,4.43
2023-11-14T04:13:38.204Z,4.61
2023-11-14T04:18:38.469Z,4.72
2023-11-14T04:23:37.854Z,4.80
2023-11-14T04:28:38.043Z,4.85
2023-11-14T04:33:38.291Z,4.98
2023-11-14T04:38:37.903Z,5.07
2023-11-14T04:43:37.979Z,5.17
2023-11-14T04:48:38.022Z,5.30
2023-11-14T04:53:38.339Z,5.42
2023-11-14T04:58:37.903Z,5.52
2023-11-14T05:03:38.543Z,5.63
2023-11-14T05:08:37.867Z,5.73
2023-11-14T05:13:39.919Z,5.86
2023-11-14T05:18:37.998Z,5.97
2023-11-14T05:23:38.696Z,6.08
2023-11-14T05:28:38.035Z,6.20
2023-11-14T05:33:39.775Z,6.29
2023-11-14T05:38:37.885Z,6.38
2023-11-14T05:43:37.944Z,6.46
2023-11-14T05:48:38.269Z,6.53
2023-11-14T05:53:40.058Z,6.61
2023-11-14T05:58:38.109Z,6.68
2023-11-14T06:03:38.268Z,6.76
2023-11-14T06:08:37.889Z,6.80
2023-11-14T06:13:37.974Z,6.91
2023-11-14T06:18:38.338Z,7.00
2023-11-14T06:23:37.761Z,7.08
2023-11-14T06:28:38.647Z,7.19
2023-11-14T06:33:38.125Z,7.27
2023-11-14T06:38:38.143Z,7.32
2023-11-14T06:43:38.662Z,7.36
2023-11-14T06:48:38.339Z,7.46
2023-11-14T06:53:37.830Z,7.52
2023-11-14T06:58:40.402Z,7.58
2023-11-14T07:03:38.709Z,7.65
2023-11-14T07:08:37.828Z,7.68
2023-11-14T07:13:38.145Z,7.82
2023-11-14T07:18:38.059Z,7.86
2023-11-14T07:23:38.348Z,7.97
2023-11-14T07:28:37.904Z,7.99
2023-11-14T07:33:37.952Z,8.11
2023-11-14T07:38:38.044Z,8.16
2023-11-14T07:43:37.841Z,8.23
2023-11-14T07:48:38.373Z,8.29
2023-11-14T07:53:37.776Z,8.35
2023-11-14T07:58:37.759Z,8.47
2023-11-14T08:03:38.467Z,8.61
2023-11-14T08:08:37.896Z,8.69
2023-11-14T08:13:38.242Z,8.71
2023-11-14T08:18:38.568Z,8.77
2023-11-14T08:23:40.989Z,8.79
2023-11-14T08:28:39.816Z,8.93
2023-11-14T08:33:37.896Z,9.09
2023-11-14T08:38:37.855Z,9.16
2023-11-14T08:43:37.714Z,9.43
2023-11-14T08:48:37.872Z,9.49
2023-11-14T08:53:39.180Z,9.45
2023-11-14T08:58:37.702Z,9.50
2023-11-14T09:03:38.313Z,9.56
2023-11-14T09:08:38.015Z,9.62
2023-11-14T09:13:37.693Z,9.73
2023-11-14T09:18:39.131Z,9.85
2023-11-14T09:23:38.307Z,9.79
2023-11-14T09:28:37.737Z,9.93
2023-11-14T09:33:37.907Z,10.09
2023-11-14T09:38:39.079Z,10.25
2023-11-14T09:43:38.019Z,10.29
2023-11-14T09:48:37.752Z,10.38
2023-11-14T09:53:39.286Z,10.67
2023-11-14T09:58:37.970Z,10.55
2023-11-14T10:03:38.026Z,10.45
2023-11-14T10:08:45.801Z,10.56
2023-11-14T10:13:38.511Z,11.04
2023-11-14T10:18:37.982Z,10.99
2023-11-14T10:23:40.513Z,10.72
2023-11-14T10:28:51.715Z,13.07
2023-11-14T10:33:39.783Z,20.09
2023-11-14T10:38:38.041Z,18.18
2023-11-14T10:43:37.780Z,17.29
2023-11-14T10:48:37.974Z,15.93
2023-11-14T10:53:38.602Z,14.39
2023-11-14T10:58:39.250Z,13.34
2023-11-14T11:03:39.485Z,12.81
2023-11-14T11:08:37.648Z,12.35
2023-11-14T11:13:40.349Z,12.51
2023-11-14T11:18:40.643Z,12.55
2023-11-14T11:23:59.823Z,12.48
2023-11-14T11:28:43.141Z,12.34
2023-11-14T11:33:39.997Z,12.20
2023-11-14T11:38:52.007Z,12.11
2023-11-14T11:43:42.080Z,12.16
2023-11-14T11:48:37.669Z,12.09
2023-11-14T11:53:40.074Z,12.20
2023-11-14T11:58:46.498Z,12.04
2023-11-14T12:03:38.071Z,11.99
2023-11-14T12:08:38.178Z,11.96
2023-11-14T12:13:37.604Z,12.01
2023-11-14T12:18:38.249Z,12.05
2023-11-14T12:23:38.012Z,12.23
2023-11-14T12:28:38.993Z,12.16
2023-11-14T12:33:42.849Z,12.08
2023-11-14T12:38:39.227Z,12.08
2023-11-14T12:43:38.339Z,11.96
2023-11-14T12:48:37.646Z,11.80
2023-11-14T12:53:37.849Z,11.70
2023-11-14T12:58:37.461Z,11.55
2023-11-14T13:03:37.578Z,11.56
2023-11-14T13:08:40.177Z,11.46
2023-11-14T13:13:37.498Z,11.38
2023-11-14T13:18:37.663Z,11.28
2023-11-14T13:23:38.871Z,11.27
2023-11-14T13:28:38.134Z,11.22
2023-11-14T13:33:37.632Z,11.17
2023-11-14T13:38:37.851Z,11.13
2023-11-14T13:43:38.605Z,11.11
2023-11-14T13:48:37.534Z,11.07
2023-11-14T13:53:39.655Z,11.01
2023-11-14T13:58:37.514Z,10.92
2023-11-14T14:03:39.029Z,10.89
2023-11-14T14:08:40.098Z,10.84
2023-11-14T14:13:39.159Z,10.75
2023-11-14T14:18:38.536Z,10.66
2023-11-14T14:23:37.755Z,10.59
2023-11-14T14:28:41.301Z,10.55
2023-11-14T14:33:38.106Z,10.50
2023-11-14T14:38:37.804Z,10.39
2023-11-14T14:43:39.293Z,10.29
2023-11-14T14:48:37.540Z,10.20
2023-11-14T14:53:38.006Z,10.14
2023-11-14T14:58:37.432Z,10.07
2023-11-14T15:03:38.202Z,9.96
2023-11-14T15:08:38.023Z,9.85
2023-11-14T15:13:37.552Z,9.83
2023-11-14T15:18:37.953Z,9.74
2023-11-14T15:23:37.870Z,9.66
2023-11-14T15:28:38.709Z,9.61
2023-11-14T15:33:37.497Z,9.56
2023-11-14T15:38:37.657Z,9.50
2023-11-14T15:43:38.536Z,9.45
2023-11-14T15:48:38.314Z,9.44
2023-11-14T15:53:37.773Z,9.42
2023-11-14T15:58:38.202Z,9.41
2023-11-14T16:03:37.540Z,9.39
2023-11-14T16:08:37.704Z,9.35
2023-11-14T16:13:37.378Z,9.30
2023-11-14T16:18:37.589Z,9.28
2023-11-14T16:23:37.924Z,9.30
2023-11-14T16:28:37.647Z,9.34
2023-11-14T16:33:37.500Z,9.40
2023-11-14T16:38:37.563Z,9.48
2023-11-14T16:43:37.729Z,9.49
2023-11-14T16:48:37.366Z,9.55
2023-11-14T16:53:39.822Z,9.60
2023-11-14T16:58:37.459Z,9.61
2023-11-14T17:03:37.447Z,9.59
2023-11-14T17:08:37.723Z,9.60
2023-11-14T17:13:38.394Z,9.63
2023-11-14T17:18:38.283Z,9.68
2023-11-14T17:23:39.284Z,9.68
2023-11-14T17:28:39.824Z,9.74
2023-11-14T17:33:39.534Z,9.71
2023-11-14T17:38:39.674Z,9.72
2023-11-14T17:43:37.699Z,9.71
2023-11-14T17:48:37.380Z,9.74
2023-11-14T17:53:37.401Z,9.69
2023-11-14T17:58:37.810Z,9.69
2023-11-14T18:03:38.141Z,9.64
2023-11-14T18:08:37.386Z,9.66
2023-11-14T18:13:37.718Z,9.62
2023-11-14T18:18:37.383Z,9.60
2023-11-14T18:23:37.502Z,9.57
2023-11-14T18:28:37.726Z,9.53
2023-11-14T18:33:37.409Z,9.49
2023-11-14T18:38:39.400Z,9.43
2023-11-14T18:43:37.595Z,9.43
2023-11-14T18:48:37.395Z,9.42
2023-11-14T18:53:37.567Z,9.43
2023-11-14T18:58:40.211Z,9.45
2023-11-14T19:03:37.761Z,9.44
2023-11-14T19:08:37.356Z,9.45
2023-11-14T19:13:37.820Z,9.47
2023-11-14T19:18:37.405Z,9.49
2023-11-14T19:23:43.652Z,9.57
2023-11-14T19:28:39.662Z,9.60
2023-11-14T19:33:37.375Z,9.63
2023-11-14T19:38:38.015Z,9.65
2023-11-14T19:43:38.898Z,9.68
2023-11-14T19:48:37.618Z,9.71
2023-11-14T19:53:37.382Z,9.74
2023-11-14T19:58:37.559Z,9.78
2023-11-14T20:03:37.396Z,9.82
2023-11-14T20:08:37.290Z,9.85
2023-11-14T20:13:41.541Z,9.88
2023-11-14T20:18:37.678Z,9.92
2023-11-14T20:23:37.386Z,9.97
2023-11-14T20:28:37.525Z,9.98
2023-11-14T20:33:37.221Z,10.03
2023-11-14T20:38:37.342Z,10.08
2023-11-14T20:43:37.881Z,10.11
2023-11-14T20:48:37.398Z,10.13
2023-11-14T20:53:37.261Z,10.15
2023-11-14T20:58:37.468Z,10.17
2023-11-14T21:03:37.330Z,10.19
2023-11-14T21:08:37.748Z,10.22
2023-11-14T21:13:38.990Z,10.25
2023-11-14T21:18:38.187Z,10.29
2023-11-14T21:23:39.483Z,10.29
2023-11-14T21:28:37.457Z,10.29
2023-11-14T21:33:37.661Z,10.31
2023-11-14T21:38:38.001Z,10.33
2023-11-14T21:43:39.274Z,10.33
2023-11-14T21:48:37.303Z,10.33
2023-11-14T21:53:37.441Z,10.38
2023-11-14T21:58:37.663Z,10.41
2023-11-14T22:03:37.189Z,10.44
2023-11-14T22:08:37.251Z,10.46
2023-11-14T22:13:37.521Z,10.48
2023-11-14T22:18:39.191Z,10.47
2023-11-14T22:23:37.451Z,10.46
2023-11-14T22:28:37.461Z,10.47
2023-11-14T22:33:37.231Z,10.47
2023-11-14T22:38:38.569Z,10.46
2023-11-14T22:43:37.581Z,10.46
2023-11-14T22:48:37.758Z,10.43
2023-11-14T22:53:37.674Z,10.39
2023-11-14T22:58:37.602Z,10.39
2023-11-14T23:03:37.173Z,10.38
2023-11-14T23:08:37.888Z,10.37
2023-11-14T23:13:37.990Z,10.33
2023-11-14T23:18:37.785Z,10.28
2023-11-14T23:23:37.802Z,10.26
2023-11-14T23:28:37.640Z,10.23
2023-11-14T23:33:37.149Z,10.21
2023-11-14T23:38:38.447Z,10.16
2023-11-14T23:43:37.442Z,10.15
2023-11-14T23:48:37.253Z,10.18
2023-11-14T23:53:37.682Z,10.15
2023-11-14T23:58:37.248Z,10.14
